Time;durP1;ratioP1;P1;durP2;ratioP2;P2;SDS_P1;SDS_P2;PMS_P1;PMS_P2;Temp;Humidity;BMP_temperature;BMP_pressure;BME280_temperature;BME280_humidity;BME280_pressure;Samples;Min_cycle;Max_cycle;Signal;HPM_P1;HPM_P2
2023/10/12 00:01:11;;;;;;;8.03;1.60;;;;;;;;;;5036444;28;20469;-82
2023/10/12 00:03:37;;;;;;;2.23;1.30;;;;;;;;;;5036829;28;20469;-82
2023/10/12 00:06:05;;;;;;;3.50;1.30;;;;;;;;;;5036233;28;20468;-81
2023/10/12 00:08:33;;;;;;;6.03;1.80;;;;;;;;;;5036597;28;20526;-82
2023/10/12 00:11:06;;;;;;;6.30;1.77;;;;;;;;;;5034929;28;20497;-82
2023/10/12 00:13:33;;;;;;;1.30;1.10;;;;;;;;;;5036218;28;20519;-82
2023/10/12 00:15:59;;;;;;;5.20;1.53;;;;;;;;;;5035996;28;20519;-82
2023/10/12 00:18:27;;;;;;;5.23;1.90;;;;;;;;;;5035248;28;20440;-82
2023/10/12 00:20:54;;;;;;;5.90;1.77;;;;;;;;;;5035356;28;20465;-82
2023/10/12 00:23:20;;;;;;;5.43;2.23;;;;;;;;;;5036331;28;20440;-82
2023/10/12 00:25:48;;;;;;;6.20;2.00;;;;;;;;;;5035474;28;20464;-82
2023/10/12 00:28:17;;;;;;;4.87;2.43;;;;;;;;;;5036042;28;20447;-82
2023/10/12 00:30:43;;;;;;;7.40;2.40;;;;;;;;;;5035303;28;20447;-82
2023/10/12 00:33:10;;;;;;;9.87;2.27;;;;;;;;;;5036533;28;20538;-82
2023/10/12 00:35:37;;;;;;;13.97;3.03;;;;;;;;;;5035736;28;20760;-82
2023/10/12 00:38:12;;;;;;;12.93;2.20;;;;;;;;;;5034833;28;20532;-82
2023/10/12 00:40:39;;;;;;;10.83;2.77;;;;;;;;;;5035386;28;20516;-82
2023/10/12 00:43:06;;;;;;;8.10;2.80;;;;;;;;;;5034646;28;20976;-82
2023/10/12 00:45:34;;;;;;;7.67;2.33;;;;;;;;;;5034180;28;20445;-82
2023/10/12 00:48:04;;;;;;;11.10;2.43;;;;;;;;;;5035971;28;20449;-82
2023/10/12 00:50:31;;;;;;;6.70;2.13;;;;;;;;;;5034982;28;20993;-82
2023/10/12 00:52:59;;;;;;;5.73;1.90;;;;;;;;;;5035450;28;20955;-83
2023/10/12 00:55:36;;;;;;;11.43;2.60;;;;;;;;;;5034022;28;20450;-82
2023/10/12 00:58:04;;;;;;;5.30;2.33;;;;;;;;;;5034750;28;20450;-83
2023/10/12 01:00:35;;;;;;;14.33;2.37;;;;;;;;;;5035375;28;20437;-80
2023/10/12 01:03:27;;;;;;;6.60;2.60;;;;;;;;;;5035916;28;20798;-82
2023/10/12 01:06:12;;;;;;;9.60;3.07;;;;;;;;;;5035261;28;20468;-82
2023/10/12 01:08:42;;;;;;;10.07;2.53;;;;;;;;;;5035747;28;20407;-82
2023/10/12 01:11:09;;;;;;;9.87;3.10;;;;;;;;;;5034827;28;20530;-82
2023/10/12 01:13:35;;;;;;;16.53;5.10;;;;;;;;;;5033979;28;20492;-82
2023/10/12 01:16:11;;;;;;;13.07;5.67;;;;;;;;;;5033092;28;20469;-83
2023/10/12 01:18:44;;;;;;;11.83;6.00;;;;;;;;;;5033960;28;20487;-84
2023/10/12 01:21:11;;;;;;;15.63;5.40;;;;;;;;;;5034343;28;20472;-82
2023/10/12 01:23:41;;;;;;;14.47;5.63;;;;;;;;;;5035001;28;20464;-81
2023/10/12 01:26:10;;;;;;;11.80;4.00;;;;;;;;;;5035522;28;20510;-83
2023/10/12 01:28:37;;;;;;;6.57;3.13;;;;;;;;;;5044122;28;20929;-82
2023/10/12 01:31:04;;;;;;;9.80;2.77;;;;;;;;;;5034772;28;20819;-82
2023/10/12 01:33:31;;;;;;;9.87;3.97;;;;;;;;;;5035591;28;20499;-81
2023/10/12 01:35:59;;;;;;;8.60;3.10;;;;;;;;;;5035453;28;20460;-83
2023/10/12 01:38:36;;;;;;;11.13;3.63;;;;;;;;;;5034922;28;20454;-82
2023/10/12 01:41:09;;;;;;;11.17;2.60;;;;;;;;;;5035319;28;20468;-82
2023/10/12 01:43:36;;;;;;;7.73;2.43;;;;;;;;;;5035329;28;20488;-83
2023/10/12 01:46:06;;;;;;;9.43;2.73;;;;;;;;;;5034417;28;20834;-82
2023/10/12 01:48:34;;;;;;;8.60;2.67;;;;;;;;;;5035004;28;20465;-81
2023/10/12 01:51:03;;;;;;;11.80;3.10;;;;;;;;;;5034393;28;20447;-82
2023/10/12 01:53:32;;;;;;;11.97;2.50;;;;;;;;;;5034380;28;20554;-82
2023/10/12 01:55:59;;;;;;;12.83;2.63;;;;;;;;;;5034534;28;20951;-81
2023/10/12 01:58:28;;;;;;;7.20;2.70;;;;;;;;;;5034709;28;20440;-81
2023/10/12 02:01:07;;;;;;;8.00;2.97;;;;;;;;;;5033790;28;20488;-81
2023/10/12 02:03:37;;;;;;;10.27;2.20;;;;;;;;;;5034818;28;20522;-82
2023/10/12 02:06:05;;;;;;;9.10;2.30;;;;;;;;;;5033773;28;20472;-80
2023/10/12 02:08:34;;;;;;;20.03;3.40;;;;;;;;;;5034134;28;20491;-80
2023/10/12 02:11:10;;;;;;;7.43;2.30;;;;;;;;;;5034195;28;20500;-80
2023/10/12 02:13:40;;;;;;;7.40;2.60;;;;;;;;;;5032538;28;20469;-80
2023/10/12 02:16:07;;;;;;;6.43;2.40;;;;;;;;;;5033916;28;20530;-81
2023/10/12 02:18:35;;;;;;;6.60;2.63;;;;;;;;;;5033995;28;20448;-80
2023/10/12 02:21:09;;;;;;;18.83;5.13;;;;;;;;;;5033472;28;20475;-80
2023/10/12 02:23:53;;;;;;;8.63;2.60;;;;;;;;;;5032531;28;20889;-80
2023/10/12 02:26:31;;;;;;;11.63;2.83;;;;;;;;;;5033575;28;20849;-80
2023/10/12 02:29:11;;;;;;;12.40;3.70;;;;;;;;;;5034063;28;20475;-80
2023/10/12 02:31:45;;;;;;;11.03;2.80;;;;;;;;;;5033738;28;20525;-80
2023/10/12 02:34:16;;;;;;;19.57;4.37;;;;;;;;;;5033077;28;20443;-80
2023/10/12 02:36:46;;;;;;;6.30;2.50;;;;;;;;;;5034106;28;20472;-80
2023/10/12 02:39:20;;;;;;;14.60;2.93;;;;;;;;;;5034104;28;20444;-82
2023/10/12 02:41:52;;;;;;;4.77;2.20;;;;;;;;;;5033688;28;20460;-80
2023/10/12 02:44:20;;;;;;;7.50;2.30;;;;;;;;;;5032825;28;20579;-80
2023/10/12 02:47:12;;;;;;;9.60;3.37;;;;;;;;;;5033738;28;20464;-80
2023/10/12 02:49:39;;;;;;;10.33;2.47;;;;;;;;;;5033798;28;20545;-80
2023/10/12 02:52:08;;;;;;;8.83;2.80;;;;;;;;;;5033154;28;20465;-80
2023/10/12 02:54:48;;;;;;;11.37;2.93;;;;;;;;;;5033510;28;20992;-80
2023/10/12 02:57:16;;;;;;;9.23;3.10;;;;;;;;;;5033569;28;20472;-81
2023/10/12 02:59:49;;;;;;;20.57;4.47;;;;;;;;;;5016181;28;20472;-80
2023/10/12 03:02:19;;;;;;;11.33;2.73;;;;;;;;;;5033242;28;20468;-80
2023/10/12 03:04:45;;;;;;;7.60;2.53;;;;;;;;;;5033487;28;20543;-80
2023/10/12 03:07:21;;;;;;;9.23;2.83;;;;;;;;;;5036568;28;20523;-81
2023/10/12 03:09:51;;;;;;;8.70;2.67;;;;;;;;;;5038543;28;20542;-80
2023/10/12 03:12:20;;;;;;;8.97;2.60;;;;;;;;;;5037802;28;20469;-81
2023/10/12 03:14:51;;;;;;;7.13;3.10;;;;;;;;;;5036459;28;20828;-82
2023/10/12 03:17:18;;;;;;;11.60;3.60;;;;;;;;;;5037118;28;21017;-81
2023/10/12 03:19:48;;;;;;;7.47;3.20;;;;;;;;;;5038209;28;20913;-81
2023/10/12 03:22:23;;;;;;;12.00;3.30;;;;;;;;;;5037797;28;20842;-81
2023/10/12 03:24:51;;;;;;;7.70;2.40;;;;;;;;;;5038020;28;20530;-81
2023/10/12 03:27:17;;;;;;;8.00;2.90;;;;;;;;;;5036926;28;20475;-82
2023/10/12 03:29:50;;;;;;;7.47;2.87;;;;;;;;;;5036894;28;20457;-81
2023/10/12 03:32:23;;;;;;;8.20;2.00;;;;;;;;;;5036562;28;20476;-81
2023/10/12 03:35:00;;;;;;;10.03;2.57;;;;;;;;;;5037007;28;20475;-81
2023/10/12 03:37:47;;;;;;;10.50;2.97;;;;;;;;;;5036815;28;20562;-81
2023/10/12 03:42:59;;;;;;;6.40;2.37;;;;;;;;;;5037250;28;20454;-81
2023/10/12 03:45:33;;;;;;;11.50;2.87;;;;;;;;;;5036638;28;20443;-81
2023/10/12 03:50:58;;;;;;;8.73;2.80;;;;;;;;;;5018786;28;20946;-81
2023/10/12 03:53:28;;;;;;;7.40;2.33;;;;;;;;;;5037367;28;20519;-81
2023/10/12 03:55:58;;;;;;;11.53;2.60;;;;;;;;;;5036942;28;20470;-81
2023/10/12 03:58:24;;;;;;;6.27;2.10;;;;;;;;;;5035740;28;20426;-81
2023/10/12 04:01:10;;;;;;;12.63;4.10;;;;;;;;;;5035176;28;20471;-81
2023/10/12 04:03:40;;;;;;;15.67;3.03;;;;;;;;;;5036612;28;20452;-81
2023/10/12 04:06:23;;;;;;;7.67;3.07;;;;;;;;;;5036409;28;21069;-81
2023/10/12 04:08:53;;;;;;;7.20;2.40;;;;;;;;;;5036345;28;20447;-81
2023/10/12 04:14:31;;;;;;;7.90;3.00;;;;;;;;;;5036604;28;20412;-82
2023/10/12 04:17:07;;;;;;;15.83;3.73;;;;;;;;;;5034852;28;21001;-82
2023/10/12 04:19:37;;;;;;;6.17;2.73;;;;;;;;;;5036991;28;20933;-82
2023/10/12 04:22:16;;;;;;;9.87;2.90;;;;;;;;;;5036306;28;20443;-82
2023/10/12 04:24:48;;;;;;;8.90;3.33;;;;;;;;;;5036264;28;20534;-83
2023/10/12 04:27:38;;;;;;;12.73;2.67;;;;;;;;;;5034843;28;20447;-80
2023/10/12 04:30:19;;;;;;;8.03;2.53;;;;;;;;;;5036141;28;20522;-82
2023/10/12 04:33:11;;;;;;;12.27;3.03;;;;;;;;;;5036515;28;20852;-80
2023/10/12 04:36:01;;;;;;;15.80;3.60;;;;;;;;;;5035732;28;20798;-80
2023/10/12 04:38:46;;;;;;;10.30;2.60;;;;;;;;;;5034982;28;20445;-82
2023/10/12 04:41:23;;;;;;;16.53;3.43;;;;;;;;;;5035468;28;20479;-82
2023/10/12 04:43:53;;;;;;;12.27;3.57;;;;;;;;;;5036325;28;20431;-81
2023/10/12 04:46:27;;;;;;;7.33;2.77;;;;;;;;;;5036361;28;20464;-81
2023/10/12 04:49:01;;;;;;;7.30;2.90;;;;;;;;;;5036579;28;20416;-81
2023/10/12 04:51:30;;;;;;;17.30;3.67;;;;;;;;;;5033229;28;20460;-82
2023/10/12 04:54:04;;;;;;;10.70;3.00;;;;;;;;;;5035665;28;20471;-81
2023/10/12 04:56:36;;;;;;;13.10;4.47;;;;;;;;;;5034894;28;20534;-82
2023/10/12 04:59:14;;;;;;;12.17;3.27;;;;;;;;;;5035342;28;20433;-81
2023/10/12 05:02:04;;;;;;;10.40;3.40;;;;;;;;;;5036010;28;20477;-82
2023/10/12 05:04:35;;;;;;;10.33;3.00;;;;;;;;;;5035445;28;20436;-81
2023/10/12 05:07:27;;;;;;;12.07;3.50;;;;;;;;;;5035937;28;20446;-81
2023/10/12 05:09:52;;;;;;;9.70;3.50;;;;;;;;;;5035768;28;20505;-81
2023/10/12 05:12:20;;;;;;;8.80;3.80;;;;;;;;;;5035710;28;20435;-81
2023/10/12 05:14:47;;;;;;;9.33;3.43;;;;;;;;;;5034950;28;20469;-81
2023/10/12 05:17:13;;;;;;;7.80;3.90;;;;;;;;;;5035480;28;20468;-82
2023/10/12 05:19:41;;;;;;;9.70;3.63;;;;;;;;;;5034089;28;20804;-81
2023/10/12 05:22:13;;;;;;;9.77;3.90;;;;;;;;;;5035466;28;20447;-82
2023/10/12 05:24:39;;;;;;;16.23;5.07;;;;;;;;;;5036611;28;20475;-82
2023/10/12 05:27:09;;;;;;;13.77;5.07;;;;;;;;;;5035383;28;20472;-82
2023/10/12 05:29:38;;;;;;;15.07;5.57;;;;;;;;;;5035652;28;20491;-82
2023/10/12 05:32:18;;;;;;;10.97;4.40;;;;;;;;;;5035502;28;20974;-81
2023/10/12 05:34:52;;;;;;;10.10;5.27;;;;;;;;;;5035015;28;20431;-80
2023/10/12 05:37:26;;;;;;;15.70;5.67;;;;;;;;;;5036417;28;20483;-80
2023/10/12 05:39:55;;;;;;;14.33;6.17;;;;;;;;;;5035585;28;20968;-81
2023/10/12 05:42:22;;;;;;;18.60;5.90;;;;;;;;;;5035814;28;20806;-82
2023/10/12 05:44:49;;;;;;;15.77;6.20;;;;;;;;;;5035588;28;21010;-81
2023/10/12 05:47:17;;;;;;;11.83;6.47;;;;;;;;;;5034649;28;20534;-81
2023/10/12 05:49:45;;;;;;;11.97;6.17;;;;;;;;;;5035473;28;20950;-80
2023/10/12 05:52:13;;;;;;;20.27;8.50;;;;;;;;;;5034473;28;20438;-81
2023/10/12 05:54:40;;;;;;;18.10;6.23;;;;;;;;;;5035417;28;20471;-80
2023/10/12 05:57:19;;;;;;;20.50;7.60;;;;;;;;;;5034812;28;20471;-80
2023/10/12 05:59:45;;;;;;;32.73;7.60;;;;;;;;;;5033902;28;20887;-80
2023/10/12 06:02:13;;;;;;;15.37;7.63;;;;;;;;;;5033691;28;20497;-80
2023/10/12 06:04:41;;;;;;;19.27;7.57;;;;;;;;;;5035105;28;20961;-80
2023/10/12 06:07:07;;;;;;;27.00;10.43;;;;;;;;;;5034555;28;20510;-82
2023/10/12 06:09:37;;;;;;;22.73;9.10;;;;;;;;;;5035195;28;20519;-82
2023/10/12 06:12:07;;;;;;;13.53;8.23;;;;;;;;;;5033467;28;20519;-82
2023/10/12 06:14:33;;;;;;;12.57;8.27;;;;;;;;;;5035437;28;20800;-83
2023/10/12 06:17:02;;;;;;;18.80;8.00;;;;;;;;;;5034793;28;20992;-82
2023/10/12 06:19:34;;;;;;;23.50;8.83;;;;;;;;;;5034080;28;20445;-82
2023/10/12 06:22:13;;;;;;;16.83;7.43;;;;;;;;;;5034449;28;20447;-82
2023/10/12 06:24:41;;;;;;;16.70;8.07;;;;;;;;;;5034458;28;20457;-82
2023/10/12 06:27:22;;;;;;;14.10;7.17;;;;;;;;;;5033027;28;20432;-83
2023/10/12 06:29:49;;;;;;;17.27;9.50;;;;;;;;;;5034974;28;20805;-82
2023/10/12 06:32:19;;;;;;;20.03;7.97;;;;;;;;;;5032618;28;20472;-83
2023/10/12 06:34:46;;;;;;;19.03;8.63;;;;;;;;;;5033307;28;20431;-82
2023/10/12 06:37:49;;;;;;;12.50;7.97;;;;;;;;;;5032504;28;20477;-82
2023/10/12 06:40:37;;;;;;;13.63;7.50;;;;;;;;;;5033498;28;20412;-82
2023/10/12 06:45:51;;;;;;;17.77;7.03;;;;;;;;;;5034163;28;20570;-82
2023/10/12 06:48:23;;;;;;;15.47;6.60;;;;;;;;;;5033769;28;20445;-82
2023/10/12 06:50:53;;;;;;;16.93;6.97;;;;;;;;;;5033698;28;21030;-82
2023/10/12 06:53:24;;;;;;;13.50;5.77;;;;;;;;;;5034075;28;20424;-80
2023/10/12 06:55:58;;;;;;;15.00;7.10;;;;;;;;;;5034022;28;20443;-82
2023/10/12 06:58:36;;;;;;;14.83;6.37;;;;;;;;;;5034899;28;20526;-82
2023/10/12 07:01:18;;;;;;;14.53;6.37;;;;;;;;;;5033244;28;20472;-83
2023/10/12 07:03:47;;;;;;;26.23;6.77;;;;;;;;;;5034047;28;20444;-83
2023/10/12 07:06:15;;;;;;;16.03;5.73;;;;;;;;;;5032307;28;20455;-82
2023/10/12 07:08:42;;;;;;;13.77;5.30;;;;;;;;;;5034203;28;20423;-82
2023/10/12 07:11:11;;;;;;;20.33;5.80;;;;;;;;;;5032617;28;20468;-81
2023/10/12 07:13:41;;;;;;;16.23;6.07;;;;;;;;;;5032868;28;20474;-81
2023/10/12 07:16:07;;;;;;;12.37;6.50;;;;;;;;;;5033868;28;20507;-81
2023/10/12 07:18:35;;;;;;;15.87;6.60;;;;;;;;;;5034647;28;20445;-82
2023/10/12 07:21:05;;;;;;;13.37;5.87;;;;;;;;;;5033817;28;20466;-82
2023/10/12 07:23:35;;;;;;;13.93;5.47;;;;;;;;;;5032934;28;20523;-82
2023/10/12 07:26:07;;;;;;;11.80;5.43;;;;;;;;;;5032792;28;20475;-82
2023/10/12 07:28:35;;;;;;;11.93;5.67;;;;;;;;;;5033847;28;20424;-81
2023/10/12 07:31:41;;;;;;;9.00;5.00;;;;;;;;;;5032383;28;20489;-82
2023/10/12 07:34:14;;;;;;;11.40;5.83;;;;;;;;;;5033938;28;20438;-81
2023/10/12 07:36:52;;;;;;;13.93;5.50;;;;;;;;;;5017166;28;20559;-82
2023/10/12 07:39:20;;;;;;;24.33;6.73;;;;;;;;;;5033880;28;20421;-81
2023/10/12 07:41:59;;;;;;;10.10;5.93;;;;;;;;;;5032102;28;20476;-83
2023/10/12 07:44:27;;;;;;;15.17;5.50;;;;;;;;;;5033558;28;20439;-82
2023/10/12 07:46:56;;;;;;;13.43;5.07;;;;;;;;;;5033212;28;20957;-82
2023/10/12 07:49:29;;;;;;;15.80;5.03;;;;;;;;;;5034537;28;20415;-81
2023/10/12 07:51:59;;;;;;;16.60;5.70;;;;;;;;;;5017929;28;20447;-83
2023/10/12 07:54:46;;;;;;;23.03;5.90;;;;;;;;;;5036568;28;21078;-83
2023/10/12 07:57:13;;;;;;;18.63;6.27;;;;;;;;;;5037926;28;20815;-81
2023/10/12 07:59:49;;;;;;;14.90;5.10;;;;;;;;;;5036473;28;20437;-82
2023/10/12 08:02:15;;;;;;;10.37;5.43;;;;;;;;;;5036526;28;20483;-82
2023/10/12 08:04:57;;;;;;;11.70;5.70;;;;;;;;;;5037288;28;20474;-80
2023/10/12 08:07:26;;;;;;;13.70;5.00;;;;;;;;;;5036858;28;20455;-82
2023/10/12 08:09:53;;;;;;;15.43;5.20;;;;;;;;;;5037567;28;20436;-82
2023/10/12 08:12:24;;;;;;;17.83;5.23;;;;;;;;;;5035825;28;20976;-82
2023/10/12 08:14:53;;;;;;;11.53;4.53;;;;;;;;;;5037641;28;20457;-82
2023/10/12 08:17:33;;;;;;;13.33;4.90;;;;;;;;;;5036637;28;20497;-81
2023/10/12 08:20:44;;;;;;;11.73;4.37;;;;;;;;;;5037329;28;20448;-83
2023/10/12 08:23:01;;;;;;;25.30;4.93;;;;;;;;;;5036917;28;20456;-81
2023/10/12 08:25:37;;;;;;;19.00;4.20;;;;;;;;;;5037229;28;20559;-82
2023/10/12 08:28:18;;;;;;;10.60;4.10;;;;;;;;;;5037908;28;20838;-81
2023/10/12 08:30:59;;;;;;;10.93;4.70;;;;;;;;;;5037381;28;20554;-82
2023/10/12 08:36:23;;;;;;;10.40;3.77;;;;;;;;;;5038247;28;20583;-81
2023/10/12 08:38:53;;;;;;;10.03;4.20;;;;;;;;;;5036510;28;21026;-82
2023/10/12 08:41:28;;;;;;;13.50;3.53;;;;;;;;;;5036693;28;20458;-82
2023/10/12 08:43:59;;;;;;;16.60;4.20;;;;;;;;;;5036154;28;20472;-82
2023/10/12 08:52:17;;;;;;;13.33;3.20;;;;;;;;;;5036654;28;20487;-80
2023/10/12 08:54:47;;;;;;;8.73;3.03;;;;;;;;;;5036160;28;20523;-82
2023/10/12 08:57:17;;;;;;;10.73;3.10;;;;;;;;;;5038307;28;20469;-82
2023/10/12 08:59:47;;;;;;;7.93;3.00;;;;;;;;;;5037532;28;20448;-81
2023/10/12 09:02:20;;;;;;;7.93;3.00;;;;;;;;;;5035990;28;20473;-82
2023/10/12 09:04:50;;;;;;;8.17;2.60;;;;;;;;;;5035922;28;20509;-83
2023/10/12 09:07:19;;;;;;;6.43;2.87;;;;;;;;;;5037311;28;20480;-81
2023/10/12 09:09:55;;;;;;;10.50;2.87;;;;;;;;;;5036174;28;20978;-81
2023/10/12 09:12:23;;;;;;;12.73;3.90;;;;;;;;;;5036750;28;20484;-81
2023/10/12 09:14:54;;;;;;;9.60;3.30;;;;;;;;;;5035726;28;20551;-81
2023/10/12 09:17:30;;;;;;;8.93;2.60;;;;;;;;;;5037197;28;20476;-83
2023/10/12 09:20:26;;;;;;;9.53;2.90;;;;;;;;;;5037419;28;20471;-81
2023/10/12 09:23:03;;;;;;;12.73;3.70;;;;;;;;;;5036699;28;20443;-81
2023/10/12 09:25:59;;;;;;;14.97;4.13;;;;;;;;;;5037725;28;20429;-80
2023/10/12 09:28:25;;;;;;;10.73;3.50;;;;;;;;;;5037469;28;20463;-82
2023/10/12 09:30:52;;;;;;;8.30;3.43;;;;;;;;;;5038200;28;20511;-80
2023/10/12 09:36:02;;;;;;;10.17;3.20;;;;;;;;;;5037362;28;20456;-81
2023/10/12 09:38:30;;;;;;;9.90;3.00;;;;;;;;;;5038619;28;20448;-81
2023/10/12 09:40:59;;;;;;;9.40;2.93;;;;;;;;;;5037098;28;20468;-81
2023/10/12 09:43:30;;;;;;;7.80;3.13;;;;;;;;;;5037013;28;20839;-81
2023/10/12 09:45:58;;;;;;;11.33;2.70;;;;;;;;;;5036392;28;20487;-81
2023/10/12 09:48:29;;;;;;;8.20;2.37;;;;;;;;;;5038008;28;20447;-81
2023/10/12 09:50:56;;;;;;;13.93;2.83;;;;;;;;;;5034998;28;20492;-81
2023/10/12 09:53:30;;;;;;;16.13;2.97;;;;;;;;;;5038093;28;20444;-81
2023/10/12 09:56:10;;;;;;;16.73;3.80;;;;;;;;;;5037099;28;20560;-82
2023/10/12 09:58:43;;;;;;;15.03;3.10;;;;;;;;;;5037729;28;20421;-80
2023/10/12 10:01:15;;;;;;;10.40;2.77;;;;;;;;;;5036756;28;20483;-81
2023/10/12 10:03:50;;;;;;;10.03;2.80;;;;;;;;;;5036811;28;20461;-80
2023/10/12 10:06:28;;;;;;;13.20;2.77;;;;;;;;;;5036637;28;20468;-80
2023/10/12 10:11:40;;;;;;;7.57;2.27;;;;;;;;;;5033299;28;20472;-81
2023/10/12 10:14:09;;;;;;;12.73;3.07;;;;;;;;;;5036313;28;20483;-83
2023/10/12 10:16:46;;;;;;;13.17;2.90;;;;;;;;;;5038763;28;21009;-81
2023/10/12 10:19:15;;;;;;;16.17;2.87;;;;;;;;;;5037594;28;20444;-84
2023/10/12 10:21:49;;;;;;;14.10;2.87;;;;;;;;;;5038045;28;20471;-81
2023/10/12 10:24:20;;;;;;;13.47;2.70;;;;;;;;;;5038944;28;20495;-83
2023/10/12 10:26:47;;;;;;;9.80;3.13;;;;;;;;;;5039183;28;20468;-82
2023/10/12 10:29:18;;;;;;;13.70;4.20;;;;;;;;;;5038024;28;20449;-82
2023/10/12 10:31:50;;;;;;;12.63;2.83;;;;;;;;;;5038647;28;20522;-82
2023/10/12 10:34:23;;;;;;;6.47;2.10;;;;;;;;;;5036845;28;20994;-82
2023/10/12 10:36:52;;;;;;;5.30;2.17;;;;;;;;;;5036527;28;20477;-82
2023/10/12 10:39:32;;;;;;;13.83;2.47;;;;;;;;;;5038739;28;20472;-82
2023/10/12 10:42:04;;;;;;;6.83;2.37;;;;;;;;;;5037204;28;20460;-83
2023/10/12 10:44:36;;;;;;;9.07;2.00;;;;;;;;;;5038135;28;20503;-82
2023/10/12 10:47:06;;;;;;;7.40;2.20;;;;;;;;;;5035818;28;20472;-82
2023/10/12 10:49:33;;;;;;;12.00;3.63;;;;;;;;;;5037664;28;20475;-82
2023/10/12 10:52:13;;;;;;;11.40;2.80;;;;;;;;;;5037382;28;20477;-82
2023/10/12 10:54:46;;;;;;;8.23;2.07;;;;;;;;;;5037144;28;20456;-82
2023/10/12 10:57:24;;;;;;;10.23;2.47;;;;;;;;;;5021165;28;21032;-82
2023/10/12 10:59:53;;;;;;;11.27;3.23;;;;;;;;;;5037544;28;20429;-80
2023/10/12 11:02:20;;;;;;;8.20;2.80;;;;;;;;;;5036740;28;20464;-80
2023/10/12 11:04:48;;;;;;;5.40;2.23;;;;;;;;;;5037666;28;20928;-83
2023/10/12 11:07:15;;;;;;;9.33;2.90;;;;;;;;;;5036939;28;20457;-81
2023/10/12 11:10:05;;;;;;;5.83;2.00;;;;;;;;;;5038022;28;20449;-81
2023/10/12 11:12:32;;;;;;;13.20;2.73;;;;;;;;;;5037603;28;20476;-80
2023/10/12 11:15:00;;;;;;;6.80;2.60;;;;;;;;;;5036444;28;20495;-82
2023/10/12 11:17:30;;;;;;;9.83;2.83;;;;;;;;;;5033036;28;20479;-81
2023/10/12 11:19:57;;;;;;;7.63;2.37;;;;;;;;;;5038670;28;20608;-83
2023/10/12 11:22:24;;;;;;;9.90;2.77;;;;;;;;;;5036784;28;20467;-82
2023/10/12 11:24:53;;;;;;;9.23;2.53;;;;;;;;;;5038356;28;20453;-82
2023/10/12 11:27:29;;;;;;;10.97;2.83;;;;;;;;;;5039337;28;20841;-82
2023/10/12 11:30:00;;;;;;;11.93;2.17;;;;;;;;;;5040626;28;20445;-82
2023/10/12 11:32:28;;;;;;;9.30;2.30;;;;;;;;;;5041047;28;20487;-83
2023/10/12 11:34:59;;;;;;;11.77;3.67;;;;;;;;;;5023389;28;20475;-82
2023/10/12 11:37:27;;;;;;;9.83;2.13;;;;;;;;;;5039597;28;20469;-82
2023/10/12 11:39:57;;;;;;;9.90;3.03;;;;;;;;;;5042614;28;20452;-82
2023/10/12 11:42:23;;;;;;;9.20;2.40;;;;;;;;;;5039598;28;20496;-82
2023/10/12 11:44:51;;;;;;;13.10;2.63;;;;;;;;;;5042045;28;20456;-82
2023/10/12 11:47:37;;;;;;;8.73;1.93;;;;;;;;;;5040534;28;20472;-81
2023/10/12 11:50:09;;;;;;;8.37;2.40;;;;;;;;;;5040549;28;20479;-81
2023/10/12 11:52:39;;;;;;;4.47;1.90;;;;;;;;;;5039292;28;20485;-81
2023/10/12 11:55:18;;;;;;;9.30;2.70;;;;;;;;;;5040324;28;20460;-82
2023/10/12 11:57:45;;;;;;;7.93;2.50;;;;;;;;;;5040031;28;20503;-79
2023/10/12 12:00:21;;;;;;;9.60;2.00;;;;;;;;;;5040989;28;20447;-80
2023/10/12 12:02:47;;;;;;;8.50;2.27;;;;;;;;;;5039260;28;20464;-82
2023/10/12 12:05:16;;;;;;;12.33;2.60;;;;;;;;;;5039732;28;20469;-82
2023/10/12 12:07:42;;;;;;;6.20;1.63;;;;;;;;;;5039187;28;20470;-82
2023/10/12 12:10:13;;;;;;;12.93;2.33;;;;;;;;;;5039603;28;20437;-81
2023/10/12 12:12:39;;;;;;;5.67;2.70;;;;;;;;;;5039076;28;20504;-81
2023/10/12 12:15:06;;;;;;;6.00;1.70;;;;;;;;;;5038400;28;20468;-81
2023/10/12 12:17:35;;;;;;;12.17;2.77;;;;;;;;;;5039225;28;20468;-81
2023/10/12 12:20:01;;;;;;;5.97;2.00;;;;;;;;;;5039198;28;21032;-82
2023/10/12 12:22:38;;;;;;;13.80;2.30;;;;;;;;;;5039793;28;20492;-81
2023/10/12 12:25:18;;;;;;;11.67;2.80;;;;;;;;;;5039500;28;20460;-81
2023/10/12 12:27:49;;;;;;;6.70;1.87;;;;;;;;;;5023600;28;20476;-82
2023/10/12 12:30:23;;;;;;;11.97;2.80;;;;;;;;;;5039517;28;20903;-82
2023/10/12 12:32:50;;;;;;;7.57;2.50;;;;;;;;;;5038833;28;20484;-81
2023/10/12 12:35:16;;;;;;;8.77;2.17;;;;;;;;;;5038423;28;20610;-82
2023/10/12 12:37:42;;;;;;;7.27;1.73;;;;;;;;;;5038448;28;20483;-81
2023/10/12 12:40:27;;;;;;;10.27;3.47;;;;;;;;;;5039483;28;20441;-81
2023/10/12 12:42:55;;;;;;;13.13;2.77;;;;;;;;;;5039099;28;20453;-82
2023/10/12 12:45:22;;;;;;;8.70;2.30;;;;;;;;;;5039107;28;20465;-81
2023/10/12 12:47:48;;;;;;;10.77;2.20;;;;;;;;;;5038338;28;20557;-82
2023/10/12 12:50:16;;;;;;;6.37;1.90;;;;;;;;;;5039105;28;20448;-81
2023/10/12 12:52:46;;;;;;;5.83;2.67;;;;;;;;;;5037416;28;20480;-82
2023/10/12 12:55:16;;;;;;;8.87;2.20;;;;;;;;;;5039065;28;20467;-81
2023/10/12 12:57:43;;;;;;;8.10;2.43;;;;;;;;;;5038638;28;20530;-81
2023/10/12 13:00:19;;;;;;;6.10;2.20;;;;;;;;;;5038626;28;20965;-81
2023/10/12 13:02:46;;;;;;;12.93;3.07;;;;;;;;;;5038591;28;20472;-82
2023/10/12 13:05:12;;;;;;;7.80;2.13;;;;;;;;;;5039069;28;20472;-79
2023/10/12 13:07:40;;;;;;;14.60;4.30;;;;;;;;;;5036895;28;20487;-81
2023/10/12 13:10:08;;;;;;;6.13;1.77;;;;;;;;;;5038932;28;20452;-81
2023/10/12 13:12:34;;;;;;;12.53;2.27;;;;;;;;;;5038082;28;20477;-81
2023/10/12 13:15:01;;;;;;;16.23;3.20;;;;;;;;;;5038616;28;20460;-82
2023/10/12 13:17:31;;;;;;;6.93;2.53;;;;;;;;;;5037737;28;20477;-81
2023/10/12 13:19:58;;;;;;;9.30;2.50;;;;;;;;;;5038636;28;20514;-80
2023/10/12 13:22:25;;;;;;;10.90;2.60;;;;;;;;;;5036460;28;20476;-82
2023/10/12 13:24:56;;;;;;;10.73;2.70;;;;;;;;;;5037594;28;20461;-80
2023/10/12 13:27:23;;;;;;;8.47;2.37;;;;;;;;;;5038309;28;20468;-81
2023/10/12 13:29:50;;;;;;;12.00;3.00;;;;;;;;;;5036794;28;20448;-82
2023/10/12 13:32:17;;;;;;;9.63;2.63;;;;;;;;;;5037917;28;20523;-81
2023/10/12 13:34:45;;;;;;;9.27;2.40;;;;;;;;;;5038506;28;20515;-82
2023/10/12 13:37:13;;;;;;;9.40;2.13;;;;;;;;;;5037991;28;20479;-79
2023/10/12 13:39:39;;;;;;;8.93;2.13;;;;;;;;;;5036606;28;20953;-82
2023/10/12 13:42:11;;;;;;;8.13;2.53;;;;;;;;;;5037483;28;20472;-81
2023/10/12 13:44:39;;;;;;;14.43;3.20;;;;;;;;;;5037929;28;20464;-81
2023/10/12 13:47:07;;;;;;;12.70;2.50;;;;;;;;;;5037710;28;20559;-81
2023/10/12 13:49:34;;;;;;;13.43;2.50;;;;;;;;;;5037653;28;20453;-81
2023/10/12 13:52:09;;;;;;;12.03;3.10;;;;;;;;;;5037175;28;20563;-81
2023/10/12 13:54:35;;;;;;;8.50;2.50;;;;;;;;;;5036417;28;20460;-81
2023/10/12 13:57:02;;;;;;;7.90;3.00;;;;;;;;;;5036925;28;20469;-82
2023/10/12 13:59:29;;;;;;;8.80;2.50;;;;;;;;;;5038091;28;20440;-82
2023/10/12 14:01:56;;;;;;;12.80;2.57;;;;;;;;;;5037200;28;20495;-81
2023/10/12 14:04:29;;;;;;;9.00;2.47;;;;;;;;;;5037308;28;20476;-82
2023/10/12 14:07:00;;;;;;;12.30;2.57;;;;;;;;;;5035953;28;20464;-80
2023/10/12 14:09:28;;;;;;;5.37;2.27;;;;;;;;;;5037186;28;20947;-80
2023/10/12 14:11:55;;;;;;;14.60;3.00;;;;;;;;;;5036620;28;20472;-81
2023/10/12 14:14:21;;;;;;;13.40;3.50;;;;;;;;;;5037546;28;20488;-81
2023/10/12 14:16:48;;;;;;;10.83;2.93;;;;;;;;;;5036025;28;20468;-79
2023/10/12 14:19:16;;;;;;;7.67;2.00;;;;;;;;;;5035867;28;20472;-82
2023/10/12 14:21:42;;;;;;;10.87;3.07;;;;;;;;;;5035320;28;20503;-82
2023/10/12 14:24:09;;;;;;;6.60;2.23;;;;;;;;;;5037111;28;20460;-82
2023/10/12 14:26:39;;;;;;;6.20;2.40;;;;;;;;;;5036984;28;21017;-81
2023/10/12 14:29:08;;;;;;;8.50;2.57;;;;;;;;;;5037685;28;20806;-81
2023/10/12 14:31:35;;;;;;;11.67;2.50;;;;;;;;;;5036733;28;20464;-81
2023/10/12 14:34:02;;;;;;;10.70;3.30;;;;;;;;;;5036361;28;20491;-81
2023/10/12 14:36:28;;;;;;;7.23;2.77;;;;;;;;;;5035253;28;20547;-83
2023/10/12 14:38:55;;;;;;;11.30;2.93;;;;;;;;;;5036550;28;20456;-82
2023/10/12 14:41:21;;;;;;;8.33;1.97;;;;;;;;;;5036671;28;20476;-81
2023/10/12 14:43:49;;;;;;;10.90;2.43;;;;;;;;;;5036567;28;20539;-82
2023/10/12 14:46:18;;;;;;;9.83;2.50;;;;;;;;;;5035597;28;20544;-82
2023/10/12 14:48:44;;;;;;;10.27;3.30;;;;;;;;;;5037139;28;20855;-81
2023/10/12 14:51:12;;;;;;;7.23;2.20;;;;;;;;;;5034602;28;20476;-79
2023/10/12 14:53:39;;;;;;;8.77;2.90;;;;;;;;;;5035405;28;20488;-81
2023/10/12 14:56:08;;;;;;;7.13;2.47;;;;;;;;;;5036058;28;20468;-82
2023/10/12 14:58:34;;;;;;;9.13;2.10;;;;;;;;;;5036515;28;20930;-81
2023/10/12 15:01:08;;;;;;;8.27;2.83;;;;;;;;;;5035922;28;20880;-81
2023/10/12 15:03:35;;;;;;;8.50;2.33;;;;;;;;;;5040812;28;20492;-81
2023/10/12 15:06:02;;;;;;;7.57;2.70;;;;;;;;;;5039443;28;20498;-81
2023/10/12 15:08:29;;;;;;;12.10;3.23;;;;;;;;;;5040389;28;20444;-82
2023/10/12 15:10:56;;;;;;;11.23;2.47;;;;;;;;;;5040127;28;20840;-81
2023/10/12 15:13:25;;;;;;;4.53;2.43;;;;;;;;;;5040281;28;21038;-81
2023/10/12 15:15:53;;;;;;;9.00;2.87;;;;;;;;;;5039907;28;20465;-81
2023/10/12 15:18:23;;;;;;;8.60;2.27;;;;;;;;;;5038832;28;20448;-81
2023/10/12 15:20:50;;;;;;;9.23;2.33;;;;;;;;;;5038414;28;20464;-81
2023/10/12 15:23:17;;;;;;;5.87;2.03;;;;;;;;;;5040066;28;20548;-81
2023/10/12 15:25:44;;;;;;;10.83;2.30;;;;;;;;;;5039992;28;20440;-81